createdAt,value
2022-12-23T00:01:39.333Z,58.55
2022-12-23T00:06:40.871Z,58.59
2022-12-23T00:12:02.307Z,58.29
2022-12-23T00:17:09.334Z,57.99
2022-12-23T00:22:41.737Z,58.57
2022-12-23T00:27:43.312Z,59.25
2022-12-23T00:32:44.812Z,59.45
2022-12-23T00:37:46.279Z,59.26
2022-12-23T00:42:53.452Z,59.24
2022-12-23T00:48:13.309Z,59.86
2022-12-23T00:53:14.776Z,59.72
2022-12-23T00:58:20.266Z,59.07
2022-12-23T01:03:40.271Z,59.44
2022-12-23T01:08:41.845Z,58.77
2022-12-23T01:13:43.322Z,59.38
2022-12-23T01:18:44.905Z,59.19
2022-12-23T01:23:46.468Z,59.31
2022-12-23T01:28:47.945Z,58.61
2022-12-23T01:33:49.458Z,58.31
2022-12-23T01:38:51.111Z,57.81
2022-12-23T01:43:52.583Z,58.65
2022-12-23T01:48:54.093Z,58.36
2022-12-23T01:53:58.865Z,58.07
2022-12-23T01:59:02.167Z,58.21
2022-12-23T02:04:09.155Z,57.99
2022-12-23T02:09:18.565Z,57.45
2022-12-23T02:14:57.419Z,58.36
2022-12-23T02:20:04.132Z,58.03
2022-12-23T02:25:17.416Z,57.92
2022-12-23T02:30:27.967Z,58.28
2022-12-23T02:35:40.903Z,58.28
2022-12-23T02:40:51.540Z,58.43
2022-12-23T02:45:55.732Z,58.76
2022-12-23T02:50:57.222Z,59.73
2022-12-23T02:55:59.158Z,59.72
2022-12-23T03:01:00.674Z,59.86
2022-12-23T03:06:02.655Z,60.08
2022-12-23T03:11:08.520Z,60.44
2022-12-23T03:16:25.173Z,59.53
2022-12-23T03:21:46.528Z,58.44
2022-12-23T03:27:10.330Z,58.23
2022-12-23T03:32:12.785Z,57.79
2022-12-23T03:37:14.662Z,56.16
2022-12-23T03:42:29.057Z,57.08
2022-12-23T03:47:33.179Z,56.67
2022-12-23T03:52:37.610Z,56.21
2022-12-23T03:57:41.595Z,54.64
2022-12-23T04:02:53.765Z,55.20
2022-12-23T04:08:16.270Z,53.41
2022-12-23T04:13:17.634Z,55.41
2022-12-23T04:18:19.152Z,55.37
2022-12-23T04:23:20.643Z,56.37
2022-12-23T04:28:22.126Z,55.33
2022-12-23T04:33:23.593Z,55.62
2022-12-23T04:38:25.072Z,55.37
2022-12-23T04:43:26.544Z,55.61
2022-12-23T04:48:28.003Z,55.76
2022-12-23T04:53:29.538Z,54.80
2022-12-23T04:58:31.008Z,55.54
2022-12-23T05:03:32.570Z,54.39
2022-12-23T05:08:34.233Z,54.79
2022-12-23T05:13:35.744Z,55.16
2022-12-23T05:18:37.208Z,55.17
2022-12-23T05:23:38.803Z,55.32
2022-12-23T05:28:40.369Z,54.98
2022-12-23T05:33:41.957Z,54.28
2022-12-23T05:38:43.487Z,55.78
2022-12-23T05:43:44.985Z,55.35
2022-12-23T05:48:46.514Z,55.40
2022-12-23T05:53:49.003Z,55.73
2022-12-23T05:58:50.461Z,54.62
2022-12-23T06:03:52.042Z,56.59
2022-12-23T06:08:59.398Z,56.55
2022-12-23T06:14:02.628Z,56.14
2022-12-23T06:19:04.113Z,56.45
2022-12-23T06:24:05.916Z,56.11
2022-12-23T06:29:07.407Z,56.03
2022-12-23T06:34:08.890Z,56.27
2022-12-23T06:39:10.576Z,56.22
2022-12-23T06:44:12.034Z,56.43
2022-12-23T06:49:14.067Z,57.06
2022-12-23T06:54:15.707Z,57.34
2022-12-23T06:59:17.169Z,56.69
2022-12-23T07:04:18.724Z,57.01
2022-12-23T07:09:20.196Z,56.71
2022-12-23T07:14:21.708Z,56.23
2022-12-23T07:19:23.674Z,55.94
2022-12-23T07:24:25.158Z,55.92
2022-12-23T07:29:26.631Z,55.73
2022-12-23T07:34:28.132Z,56.26
2022-12-23T07:39:29.654Z,55.92
2022-12-23T07:44:31.125Z,55.42
2022-12-23T07:49:32.595Z,56.12
2022-12-23T07:54:34.108Z,53.57
2022-12-23T07:59:35.584Z,53.71
2022-12-23T08:04:42.549Z,54.48
2022-12-23T08:09:47.191Z,55.30
2022-12-23T08:14:50.375Z,56.32
2022-12-23T08:19:51.841Z,56.16
2022-12-23T08:24:53.373Z,55.12
2022-12-23T08:29:54.860Z,55.98
2022-12-23T08:34:57.648Z,56.24
2022-12-23T08:39:59.142Z,55.61
2022-12-23T08:45:00.925Z,55.66
2022-12-23T08:50:02.697Z,54.71
2022-12-23T08:55:04.233Z,55.69
2022-12-23T09:00:06.369Z,56.00
2022-12-23T09:05:08.064Z,55.59
2022-12-23T09:10:09.673Z,56.94
2022-12-23T09:15:11.215Z,56.17
2022-12-23T09:20:12.711Z,55.22
2022-12-23T09:25:15.615Z,55.46
2022-12-23T09:30:17.215Z,55.56
2022-12-23T09:35:18.670Z,55.20
2022-12-23T09:40:20.565Z,55.02
2022-12-23T09:45:56.359Z,53.08
2022-12-23T09:50:57.964Z,54.12
2022-12-23T09:56:02.204Z,53.05
2022-12-23T10:01:18.539Z,54.11
2022-12-23T10:06:22.125Z,52.68
2022-12-23T10:11:38.026Z,52.69
2022-12-23T10:16:41.317Z,52.19
2022-12-23T10:21:48.244Z,50.68
2022-12-23T10:26:53.999Z,52.78
2022-12-23T10:32:17.816Z,51.70
2022-12-23T10:37:31.139Z,51.78
2022-12-23T10:43:11.773Z,51.25
2022-12-23T10:48:25.300Z,50.17
2022-12-23T10:53:43.635Z,48.50
2022-12-23T10:58:45.993Z,50.01
2022-12-23T11:04:14.963Z,49.36
2022-12-23T11:09:24.078Z,49.77
2022-12-23T11:14:41.437Z,50.50
2022-12-23T11:19:42.943Z,49.67
2022-12-23T11:24:44.411Z,50.16
2022-12-23T11:29:51.832Z,50.01
2022-12-23T11:34:53.875Z,50.34
2022-12-23T11:39:55.361Z,50.29
2022-12-23T11:44:58.222Z,50.31
2022-12-23T11:50:01.563Z,49.82
2022-12-23T11:55:04.033Z,48.69
2022-12-23T12:00:07.163Z,48.90
2022-12-23T12:05:37.233Z,49.43
2022-12-23T12:10:39.199Z,50.27
2022-12-23T12:15:44.753Z,50.21
2022-12-23T12:20:48.759Z,51.23
2022-12-23T12:25:52.720Z,49.45
2022-12-23T12:30:57.857Z,51.68
2022-12-23T12:36:15.872Z,51.89
2022-12-23T12:41:22.433Z,51.28
2022-12-23T12:46:39.672Z,52.26
2022-12-23T12:51:54.481Z,52.40
2022-12-23T12:56:56.564Z,52.89
2022-12-23T13:02:19.628Z,54.39
2022-12-23T13:07:53.238Z,53.24
2022-12-23T13:13:03.854Z,53.69
2022-12-23T13:18:36.505Z,54.24
2022-12-23T13:23:44.020Z,52.71
2022-12-23T13:28:59.767Z,49.42
2022-12-23T13:34:29.454Z,46.86
2022-12-23T13:39:39.833Z,46.26
2022-12-23T13:44:41.312Z,46.67
2022-12-23T13:49:55.263Z,46.83
2022-12-23T13:54:59.511Z,47.13
2022-12-23T14:00:06.175Z,46.05
2022-12-23T14:05:30.558Z,45.75
2022-12-23T14:10:32.023Z,45.22
2022-12-23T14:15:47.073Z,46.77
2022-12-23T14:20:50.855Z,45.96
2022-12-23T14:26:27.422Z,45.20
2022-12-23T14:31:40.553Z,44.37
2022-12-23T14:36:42.125Z,45.10
2022-12-23T14:41:50.856Z,44.90
2022-12-23T14:46:53.008Z,43.94
2022-12-23T14:51:54.487Z,42.44
2022-12-23T14:57:00.361Z,43.21
2022-12-23T15:02:03.239Z,43.13
2022-12-23T15:07:06.629Z,43.41
2022-12-23T15:12:13.681Z,41.64
2022-12-23T15:17:28.449Z,42.21
2022-12-23T15:22:32.931Z,40.66
2022-12-23T15:27:35.583Z,42.51
2022-12-23T15:32:37.038Z,42.51
2022-12-23T15:37:38.507Z,42.30
2022-12-23T15:42:39.979Z,42.13
2022-12-23T15:47:42.967Z,40.35
2022-12-23T15:52:45.426Z,41.18
2022-12-23T15:57:50.381Z,40.78
2022-12-23T16:03:02.344Z,40.55
2022-12-23T16:08:19.353Z,40.71
2022-12-23T16:13:25.369Z,41.37
2022-12-23T16:18:31.572Z,41.15
2022-12-23T16:23:34.709Z,41.66
2022-12-23T16:28:37.919Z,41.30
2022-12-23T16:33:43.724Z,42.88
2022-12-23T16:38:45.214Z,43.53
2022-12-23T16:43:51.904Z,42.84
2022-12-23T16:48:55.424Z,42.00
2022-12-23T16:53:57.391Z,43.45
2022-12-23T16:58:58.937Z,43.57
2022-12-23T17:04:00.503Z,43.74
2022-12-23T17:09:02.126Z,42.83
2022-12-23T17:14:07.882Z,43.16
2022-12-23T17:19:12.000Z,44.73
2022-12-23T17:24:23.744Z,45.30
2022-12-23T17:29:25.265Z,45.38
2022-12-23T17:34:26.772Z,44.25
2022-12-23T17:39:28.234Z,44.33
2022-12-23T17:44:29.842Z,45.83
2022-12-23T17:49:31.293Z,43.64
2022-12-23T17:54:32.805Z,43.70
2022-12-23T17:59:34.262Z,45.30
2022-12-23T18:04:35.724Z,46.21
2022-12-23T18:09:37.334Z,45.75
2022-12-23T18:14:38.816Z,45.90
2022-12-23T18:19:40.282Z,46.63
2022-12-23T18:24:41.897Z,47.28
2022-12-23T18:29:43.760Z,48.32
2022-12-23T18:34:45.244Z,47.93
2022-12-23T18:39:46.761Z,48.28
2022-12-23T18:44:48.458Z,48.11
2022-12-23T18:49:49.947Z,47.15
2022-12-23T18:54:53.344Z,46.83
2022-12-23T18:59:54.813Z,47.03
2022-12-23T19:04:56.307Z,47.53
2022-12-23T19:09:57.782Z,47.07
2022-12-23T19:14:59.292Z,47.20
2022-12-23T19:20:00.782Z,46.79
2022-12-23T19:25:06.760Z,46.02
2022-12-23T19:30:09.145Z,45.91
2022-12-23T19:35:13.787Z,45.38
2022-12-23T19:40:15.260Z,45.47
2022-12-23T19:45:17.117Z,45.28
2022-12-23T19:50:19.678Z,45.76
2022-12-23T19:55:21.166Z,45.52
2022-12-23T20:00:22.636Z,44.97
2022-12-23T20:05:24.154Z,44.49
2022-12-23T20:10:25.639Z,43.72
2022-12-23T20:15:27.180Z,44.30
2022-12-23T20:20:28.678Z,44.27
2022-12-23T20:25:30.180Z,44.33
2022-12-23T20:30:31.666Z,44.42
2022-12-23T20:35:33.177Z,44.88
2022-12-23T20:40:34.648Z,45.37
2022-12-23T20:45:36.122Z,45.46
2022-12-23T20:50:39.891Z,46.05
2022-12-23T20:55:41.408Z,45.02
2022-12-23T21:00:42.887Z,45.25
2022-12-23T21:05:44.379Z,45.61
2022-12-23T21:10:52.555Z,45.07
2022-12-23T21:15:54.189Z,47.37
2022-12-23T21:21:02.728Z,45.69
2022-12-23T21:26:09.266Z,46.55
2022-12-23T21:31:10.831Z,45.89
2022-12-23T21:36:19.818Z,45.28
2022-12-23T21:41:23.417Z,45.81
2022-12-23T21:46:25.076Z,45.90
2022-12-23T21:51:33.343Z,47.75
2022-12-23T21:56:38.443Z,47.52
2022-12-23T22:01:40.490Z,46.63
2022-12-23T22:06:44.245Z,47.73
2022-12-23T22:11:46.256Z,47.80
2022-12-23T22:16:47.804Z,47.93
2022-12-23T22:21:49.399Z,47.51
2022-12-23T22:26:50.887Z,47.52
2022-12-23T22:31:53.217Z,47.56
2022-12-23T22:36:54.844Z,48.76
2022-12-23T22:41:56.323Z,49.09
2022-12-23T22:46:57.779Z,48.88
2022-12-23T22:51:59.266Z,48.72
2022-12-23T22:57:00.736Z,48.15
2022-12-23T23:02:02.215Z,48.61
2022-12-23T23:07:03.739Z,49.58
2022-12-23T23:12:05.338Z,49.05
2022-12-23T23:17:06.924Z,49.06
2022-12-23T23:22:08.413Z,48.56
2022-12-23T23:27:09.933Z,48.82
2022-12-23T23:32:11.516Z,49.99
2022-12-23T23:37:14.150Z,49.95
2022-12-23T23:42:17.774Z,50.36
2022-12-23T23:47:19.291Z,50.43
2022-12-23T23:52:20.775Z,51.24
2022-12-23T23:57:22.228Z,51.39
